sensor_id;sensor_type;location;lat;lon;timestamp;P1;durP1;ratioP1;P2;durP2;ratioP2
4424;SDS011;2225;53.568;13.266;2023-08-06T00:01:48;10.33;;;4.53;;
4424;SDS011;2225;53.568;13.266;2023-08-06T00:04:15;11.63;;;4.80;;
4424;SDS011;2225;53.568;13.266;2023-08-06T00:06:42;12.23;;;4.93;;
4424;SDS011;2225;53.568;13.266;2023-08-06T00:09:09;12.40;;;4.33;;
4424;SDS011;2225;53.568;13.266;2023-08-06T00:11:36;15.97;;;6.00;;
4424;SDS011;2225;53.568;13.266;2023-08-06T00:14:03;11.37;;;4.33;;
4424;SDS011;2225;53.568;13.266;2023-08-06T00:16:30;14.23;;;5.30;;
4424;SDS011;2225;53.568;13.266;2023-08-06T00:18:57;13.00;;;5.03;;
4424;SDS011;2225;53.568;13.266;2023-08-06T00:21:24;17.93;;;4.93;;
4424;SDS011;2225;53.568;13.266;2023-08-06T00:23:51;20.23;;;5.60;;
4424;SDS011;2225;53.568;13.266;2023-08-06T00:26:18;13.87;;;4.60;;
4424;SDS011;2225;53.568;13.266;2023-08-06T00:28:45;15.13;;;5.07;;
4424;SDS011;2225;53.568;13.266;2023-08-06T00:31:12;16.20;;;4.33;;
4424;SDS011;2225;53.568;13.266;2023-08-06T00:33:40;15.23;;;5.17;;
4424;SDS011;2225;53.568;13.266;2023-08-06T00:36:07;12.20;;;4.93;;
4424;SDS011;2225;53.568;13.266;2023-08-06T00:38:34;16.03;;;5.03;;
4424;SDS011;2225;53.568;13.266;2023-08-06T00:41:01;14.00;;;5.20;;
4424;SDS011;2225;53.568;13.266;2023-08-06T00:43:28;13.47;;;4.93;;
4424;SDS011;2225;53.568;13.266;2023-08-06T00:45:55;13.30;;;4.90;;
4424;SDS011;2225;53.568;13.266;2023-08-06T00:48:22;12.63;;;4.50;;
4424;SDS011;2225;53.568;13.266;2023-08-06T00:50:49;15.47;;;5.37;;
4424;SDS011;2225;53.568;13.266;2023-08-06T00:53:16;14.23;;;4.67;;
4424;SDS011;2225;53.568;13.266;2023-08-06T00:55:44;14.93;;;4.63;;
4424;SDS011;2225;53.568;13.266;2023-08-06T00:58:12;13.10;;;4.87;;
4424;SDS011;2225;53.568;13.266;2023-08-06T01:00:40;13.13;;;4.80;;
4424;SDS011;2225;53.568;13.266;2023-08-06T01:03:08;11.63;;;4.57;;
4424;SDS011;2225;53.568;13.266;2023-08-06T01:05:35;12.03;;;4.93;;
4424;SDS011;2225;53.568;13.266;2023-08-06T01:14:21;13.43;;;5.37;;
4424;SDS011;2225;53.568;13.266;2023-08-06T01:16:55;17.23;;;5.20;;
4424;SDS011;2225;53.568;13.266;2023-08-06T01:19:24;14.07;;;5.03;;
4424;SDS011;2225;53.568;13.266;2023-08-06T01:21:52;11.53;;;5.03;;
4424;SDS011;2225;53.568;13.266;2023-08-06T01:24:19;14.00;;;5.27;;
4424;SDS011;2225;53.568;13.266;2023-08-06T01:29:56;12.23;;;5.00;;
4424;SDS011;2225;53.568;13.266;2023-08-06T01:32:34;13.03;;;5.03;;
4424;SDS011;2225;53.568;13.266;2023-08-06T01:35:02;12.97;;;5.00;;
4424;SDS011;2225;53.568;13.266;2023-08-06T01:37:31;19.77;;;5.47;;
4424;SDS011;2225;53.568;13.266;2023-08-06T01:40:05;12.40;;;4.73;;
4424;SDS011;2225;53.568;13.266;2023-08-06T01:42:36;17.10;;;4.77;;
4424;SDS011;2225;53.568;13.266;2023-08-06T01:45:04;17.00;;;5.60;;
4424;SDS011;2225;53.568;13.266;2023-08-06T01:47:33;13.60;;;4.40;;
4424;SDS011;2225;53.568;13.266;2023-08-06T01:50:00;19.73;;;5.00;;
4424;SDS011;2225;53.568;13.266;2023-08-06T01:52:27;15.13;;;4.93;;
4424;SDS011;2225;53.568;13.266;2023-08-06T01:54:55;12.40;;;4.63;;
4424;SDS011;2225;53.568;13.266;2023-08-06T01:57:22;13.50;;;5.30;;
4424;SDS011;2225;53.568;13.266;2023-08-06T01:59:49;14.83;;;5.47;;
4424;SDS011;2225;53.568;13.266;2023-08-06T02:02:16;12.20;;;5.27;;
4424;SDS011;2225;53.568;13.266;2023-08-06T02:04:43;15.67;;;5.07;;
4424;SDS011;2225;53.568;13.266;2023-08-06T02:07:11;13.13;;;4.90;;
4424;SDS011;2225;53.568;13.266;2023-08-06T02:09:38;13.83;;;5.33;;
4424;SDS011;2225;53.568;13.266;2023-08-06T02:12:06;13.73;;;6.77;;
4424;SDS011;2225;53.568;13.266;2023-08-06T02:14:33;16.43;;;5.37;;
4424;SDS011;2225;53.568;13.266;2023-08-06T02:17:01;15.20;;;5.87;;
4424;SDS011;2225;53.568;13.266;2023-08-06T02:19:28;10.17;;;4.73;;
4424;SDS011;2225;53.568;13.266;2023-08-06T02:21:55;12.03;;;5.63;;
4424;SDS011;2225;53.568;13.266;2023-08-06T02:24:22;14.33;;;4.80;;
4424;SDS011;2225;53.568;13.266;2023-08-06T02:26:49;12.60;;;4.37;;
4424;SDS011;2225;53.568;13.266;2023-08-06T02:29:17;15.70;;;5.60;;
4424;SDS011;2225;53.568;13.266;2023-08-06T02:31:44;16.87;;;5.63;;
4424;SDS011;2225;53.568;13.266;2023-08-06T02:34:11;12.30;;;4.70;;
4424;SDS011;2225;53.568;13.266;2023-08-06T02:36:38;14.37;;;6.73;;
4424;SDS011;2225;53.568;13.266;2023-08-06T02:39:05;17.47;;;5.30;;
4424;SDS011;2225;53.568;13.266;2023-08-06T02:41:32;12.17;;;5.10;;
4424;SDS011;2225;53.568;13.266;2023-08-06T02:43:59;14.23;;;6.03;;
4424;SDS011;2225;53.568;13.266;2023-08-06T02:46:26;11.03;;;5.00;;
4424;SDS011;2225;53.568;13.266;2023-08-06T02:48:53;14.13;;;5.50;;
4424;SDS011;2225;53.568;13.266;2023-08-06T02:51:20;15.60;;;6.27;;
4424;SDS011;2225;53.568;13.266;2023-08-06T02:53:48;14.47;;;5.57;;
4424;SDS011;2225;53.568;13.266;2023-08-06T02:56:17;15.87;;;6.17;;
4424;SDS011;2225;53.568;13.266;2023-08-06T02:59:02;12.60;;;5.67;;
4424;SDS011;2225;53.568;13.266;2023-08-06T03:01:45;21.40;;;6.10;;
4424;SDS011;2225;53.568;13.266;2023-08-06T03:04:19;15.23;;;5.37;;
4424;SDS011;2225;53.568;13.266;2023-08-06T03:06:49;12.47;;;5.80;;
4424;SDS011;2225;53.568;13.266;2023-08-06T03:09:19;16.53;;;6.17;;
4424;SDS011;2225;53.568;13.266;2023-08-06T03:11:48;20.57;;;6.23;;
4424;SDS011;2225;53.568;13.266;2023-08-06T03:14:15;16.20;;;6.33;;
4424;SDS011;2225;53.568;13.266;2023-08-06T03:16:43;14.10;;;5.97;;
4424;SDS011;2225;53.568;13.266;2023-08-06T03:19:13;13.67;;;5.30;;
4424;SDS011;2225;53.568;13.266;2023-08-06T03:21:40;10.60;;;5.47;;
4424;SDS011;2225;53.568;13.266;2023-08-06T03:24:07;25.80;;;6.10;;
4424;SDS011;2225;53.568;13.266;2023-08-06T03:26:37;15.67;;;6.60;;
4424;SDS011;2225;53.568;13.266;2023-08-06T03:29:04;16.10;;;6.70;;
4424;SDS011;2225;53.568;13.266;2023-08-06T03:31:33;15.13;;;5.80;;
4424;SDS011;2225;53.568;13.266;2023-08-06T03:34:00;13.60;;;6.27;;
4424;SDS011;2225;53.568;13.266;2023-08-06T03:36:29;17.23;;;6.67;;
4424;SDS011;2225;53.568;13.266;2023-08-06T03:38:57;12.83;;;6.23;;
4424;SDS011;2225;53.568;13.266;2023-08-06T03:41:24;17.90;;;6.60;;
4424;SDS011;2225;53.568;13.266;2023-08-06T03:43:51;12.40;;;6.13;;
4424;SDS011;2225;53.568;13.266;2023-08-06T03:46:23;14.40;;;6.03;;
4424;SDS011;2225;53.568;13.266;2023-08-06T03:48:51;20.67;;;6.17;;
4424;SDS011;2225;53.568;13.266;2023-08-06T03:51:18;16.47;;;5.97;;
4424;SDS011;2225;53.568;13.266;2023-08-06T03:53:47;14.83;;;6.87;;
4424;SDS011;2225;53.568;13.266;2023-08-06T03:56:14;17.63;;;6.97;;
4424;SDS011;2225;53.568;13.266;2023-08-06T03:58:41;12.97;;;6.13;;
4424;SDS011;2225;53.568;13.266;2023-08-06T04:01:08;21.00;;;6.87;;
4424;SDS011;2225;53.568;13.266;2023-08-06T04:03:46;16.87;;;5.93;;
4424;SDS011;2225;53.568;13.266;2023-08-06T04:06:13;16.70;;;7.80;;
4424;SDS011;2225;53.568;13.266;2023-08-06T04:08:40;18.47;;;6.30;;
4424;SDS011;2225;53.568;13.266;2023-08-06T04:11:07;13.13;;;6.63;;
4424;SDS011;2225;53.568;13.266;2023-08-06T04:13:34;15.03;;;6.00;;
4424;SDS011;2225;53.568;13.266;2023-08-06T04:16:02;17.57;;;6.70;;
4424;SDS011;2225;53.568;13.266;2023-08-06T04:18:30;16.03;;;6.30;;
4424;SDS011;2225;53.568;13.266;2023-08-06T04:20:57;11.33;;;5.67;;
4424;SDS011;2225;53.568;13.266;2023-08-06T04:23:24;17.23;;;5.60;;
4424;SDS011;2225;53.568;13.266;2023-08-06T04:25:58;16.63;;;6.80;;
4424;SDS011;2225;53.568;13.266;2023-08-06T04:28:30;14.57;;;6.30;;
4424;SDS011;2225;53.568;13.266;2023-08-06T04:30:58;17.80;;;6.50;;
4424;SDS011;2225;53.568;13.266;2023-08-06T04:33:27;11.93;;;6.00;;
4424;SDS011;2225;53.568;13.266;2023-08-06T04:35:57;14.73;;;6.10;;
4424;SDS011;2225;53.568;13.266;2023-08-06T04:38:26;16.10;;;6.13;;
4424;SDS011;2225;53.568;13.266;2023-08-06T04:40:54;21.93;;;6.13;;
4424;SDS011;2225;53.568;13.266;2023-08-06T04:43:22;14.57;;;6.33;;
4424;SDS011;2225;53.568;13.266;2023-08-06T04:45:50;12.07;;;5.93;;
4424;SDS011;2225;53.568;13.266;2023-08-06T04:48:19;13.83;;;6.60;;
4424;SDS011;2225;53.568;13.266;2023-08-06T04:50:47;13.67;;;6.00;;
4424;SDS011;2225;53.568;13.266;2023-08-06T04:53:15;15.77;;;5.80;;
4424;SDS011;2225;53.568;13.266;2023-08-06T04:55:42;14.90;;;5.23;;
4424;SDS011;2225;53.568;13.266;2023-08-06T04:58:10;17.07;;;6.03;;
4424;SDS011;2225;53.568;13.266;2023-08-06T05:00:37;20.60;;;5.93;;
4424;SDS011;2225;53.568;13.266;2023-08-06T05:03:05;18.00;;;5.97;;
4424;SDS011;2225;53.568;13.266;2023-08-06T05:05:32;15.40;;;5.80;;
4424;SDS011;2225;53.568;13.266;2023-08-06T05:07:59;18.73;;;6.00;;
4424;SDS011;2225;53.568;13.266;2023-08-06T05:10:26;11.13;;;5.30;;
4424;SDS011;2225;53.568;13.266;2023-08-06T05:12:54;11.17;;;4.83;;
4424;SDS011;2225;53.568;13.266;2023-08-06T05:15:21;11.10;;;4.90;;
4424;SDS011;2225;53.568;13.266;2023-08-06T05:17:48;16.13;;;6.13;;
4424;SDS011;2225;53.568;13.266;2023-08-06T05:20:15;16.13;;;5.83;;
4424;SDS011;2225;53.568;13.266;2023-08-06T05:22:42;14.33;;;5.63;;
4424;SDS011;2225;53.568;13.266;2023-08-06T05:25:12;28.43;;;6.10;;
4424;SDS011;2225;53.568;13.266;2023-08-06T05:27:40;14.20;;;5.60;;
4424;SDS011;2225;53.568;13.266;2023-08-06T05:30:08;13.73;;;5.90;;
4424;SDS011;2225;53.568;13.266;2023-08-06T05:32:35;12.33;;;5.10;;
4424;SDS011;2225;53.568;13.266;2023-08-06T05:35:03;14.60;;;5.93;;
4424;SDS011;2225;53.568;13.266;2023-08-06T05:37:30;14.07;;;5.83;;
4424;SDS011;2225;53.568;13.266;2023-08-06T05:39:57;16.47;;;6.33;;
4424;SDS011;2225;53.568;13.266;2023-08-06T05:42:24;14.70;;;6.20;;
4424;SDS011;2225;53.568;13.266;2023-08-06T05:44:51;15.73;;;6.80;;
4424;SDS011;2225;53.568;13.266;2023-08-06T05:47:18;18.50;;;6.17;;
4424;SDS011;2225;53.568;13.266;2023-08-06T05:49:45;16.67;;;6.80;;
4424;SDS011;2225;53.568;13.266;2023-08-06T05:52:12;13.00;;;6.00;;
4424;SDS011;2225;53.568;13.266;2023-08-06T05:54:39;16.50;;;6.10;;
4424;SDS011;2225;53.568;13.266;2023-08-06T05:57:06;14.90;;;6.50;;
4424;SDS011;2225;53.568;13.266;2023-08-06T05:59:33;13.17;;;6.63;;
4424;SDS011;2225;53.568;13.266;2023-08-06T06:02:00;20.73;;;7.37;;
4424;SDS011;2225;53.568;13.266;2023-08-06T06:04:27;17.07;;;7.47;;
4424;SDS011;2225;53.568;13.266;2023-08-06T06:06:55;18.10;;;6.97;;
4424;SDS011;2225;53.568;13.266;2023-08-06T06:09:22;26.03;;;6.70;;
4424;SDS011;2225;53.568;13.266;2023-08-06T06:11:48;13.27;;;6.53;;
4424;SDS011;2225;53.568;13.266;2023-08-06T06:14:17;12.70;;;6.30;;
4424;SDS011;2225;53.568;13.266;2023-08-06T06:16:45;15.67;;;6.73;;
4424;SDS011;2225;53.568;13.266;2023-08-06T06:19:12;15.43;;;5.97;;
4424;SDS011;2225;53.568;13.266;2023-08-06T06:21:40;18.87;;;6.50;;
4424;SDS011;2225;53.568;13.266;2023-08-06T06:24:24;15.63;;;6.77;;
4424;SDS011;2225;53.568;13.266;2023-08-06T06:26:51;20.93;;;8.17;;
4424;SDS011;2225;53.568;13.266;2023-08-06T06:29:18;17.10;;;8.10;;
4424;SDS011;2225;53.568;13.266;2023-08-06T06:31:45;20.63;;;8.50;;
4424;SDS011;2225;53.568;13.266;2023-08-06T06:34:12;20.27;;;7.47;;
4424;SDS011;2225;53.568;13.266;2023-08-06T06:36:39;12.37;;;5.83;;
4424;SDS011;2225;53.568;13.266;2023-08-06T06:39:06;15.57;;;7.33;;
4424;SDS011;2225;53.568;13.266;2023-08-06T06:41:34;17.70;;;6.77;;
4424;SDS011;2225;53.568;13.266;2023-08-06T06:44:09;16.70;;;6.20;;
4424;SDS011;2225;53.568;13.266;2023-08-06T06:46:36;12.90;;;6.83;;
4424;SDS011;2225;53.568;13.266;2023-08-06T06:49:03;16.60;;;6.80;;
4424;SDS011;2225;53.568;13.266;2023-08-06T06:51:30;17.13;;;7.90;;
4424;SDS011;2225;53.568;13.266;2023-08-06T06:53:58;13.80;;;6.17;;
4424;SDS011;2225;53.568;13.266;2023-08-06T06:56:25;15.87;;;7.20;;
4424;SDS011;2225;53.568;13.266;2023-08-06T06:58:52;17.90;;;6.97;;
4424;SDS011;2225;53.568;13.266;2023-08-06T07:01:19;18.00;;;7.50;;
4424;SDS011;2225;53.568;13.266;2023-08-06T07:03:46;20.50;;;7.50;;
4424;SDS011;2225;53.568;13.266;2023-08-06T07:06:13;18.70;;;6.40;;
4424;SDS011;2225;53.568;13.266;2023-08-06T07:08:41;13.47;;;6.07;;
4424;SDS011;2225;53.568;13.266;2023-08-06T07:11:08;14.23;;;6.80;;
4424;SDS011;2225;53.568;13.266;2023-08-06T07:13:35;16.93;;;6.97;;
4424;SDS011;2225;53.568;13.266;2023-08-06T07:16:02;13.40;;;6.90;;
4424;SDS011;2225;53.568;13.266;2023-08-06T07:18:29;19.13;;;7.07;;
4424;SDS011;2225;53.568;13.266;2023-08-06T07:20:56;15.60;;;6.43;;
4424;SDS011;2225;53.568;13.266;2023-08-06T07:23:24;15.73;;;6.50;;
4424;SDS011;2225;53.568;13.266;2023-08-06T07:25:52;13.87;;;6.63;;
4424;SDS011;2225;53.568;13.266;2023-08-06T07:28:19;13.70;;;6.37;;
4424;SDS011;2225;53.568;13.266;2023-08-06T07:30:46;13.23;;;5.80;;
4424;SDS011;2225;53.568;13.266;2023-08-06T07:33:14;13.90;;;5.60;;
4424;SDS011;2225;53.568;13.266;2023-08-06T07:35:40;12.93;;;6.53;;
4424;SDS011;2225;53.568;13.266;2023-08-06T07:38:07;15.97;;;7.43;;
4424;SDS011;2225;53.568;13.266;2023-08-06T07:40:38;16.17;;;6.10;;
4424;SDS011;2225;53.568;13.266;2023-08-06T07:43:06;14.47;;;6.57;;
4424;SDS011;2225;53.568;13.266;2023-08-06T07:45:35;12.80;;;5.90;;
4424;SDS011;2225;53.568;13.266;2023-08-06T07:48:03;13.50;;;5.50;;
4424;SDS011;2225;53.568;13.266;2023-08-06T07:50:30;14.60;;;6.27;;
4424;SDS011;2225;53.568;13.266;2023-08-06T07:52:58;13.10;;;5.70;;
4424;SDS011;2225;53.568;13.266;2023-08-06T07:55:25;11.63;;;5.40;;
4424;SDS011;2225;53.568;13.266;2023-08-06T07:57:53;17.67;;;6.57;;
4424;SDS011;2225;53.568;13.266;2023-08-06T08:00:20;10.60;;;5.60;;
4424;SDS011;2225;53.568;13.266;2023-08-06T08:02:47;13.83;;;5.60;;
4424;SDS011;2225;53.568;13.266;2023-08-06T08:05:15;15.27;;;6.70;;
4424;SDS011;2225;53.568;13.266;2023-08-06T08:07:42;12.17;;;6.70;;
4424;SDS011;2225;53.568;13.266;2023-08-06T08:10:10;15.50;;;6.83;;
4424;SDS011;2225;53.568;13.266;2023-08-06T08:12:37;16.40;;;6.07;;
4424;SDS011;2225;53.568;13.266;2023-08-06T08:15:04;16.67;;;6.20;;
4424;SDS011;2225;53.568;13.266;2023-08-06T08:17:32;11.43;;;5.90;;
4424;SDS011;2225;53.568;13.266;2023-08-06T08:20:01;12.03;;;5.53;;
4424;SDS011;2225;53.568;13.266;2023-08-06T08:22:28;14.30;;;5.27;;
4424;SDS011;2225;53.568;13.266;2023-08-06T08:24:55;13.30;;;6.30;;
4424;SDS011;2225;53.568;13.266;2023-08-06T08:27:22;16.83;;;5.93;;
4424;SDS011;2225;53.568;13.266;2023-08-06T08:29:49;13.37;;;5.30;;
4424;SDS011;2225;53.568;13.266;2023-08-06T08:32:16;14.20;;;5.73;;
4424;SDS011;2225;53.568;13.266;2023-08-06T08:34:43;12.63;;;6.20;;
4424;SDS011;2225;53.568;13.266;2023-08-06T08:37:10;12.83;;;5.53;;
4424;SDS011;2225;53.568;13.266;2023-08-06T08:39:37;12.83;;;5.30;;
4424;SDS011;2225;53.568;13.266;2023-08-06T08:42:05;16.30;;;7.27;;
4424;SDS011;2225;53.568;13.266;2023-08-06T08:44:33;15.03;;;6.10;;
4424;SDS011;2225;53.568;13.266;2023-08-06T08:47:03;10.83;;;4.93;;
4424;SDS011;2225;53.568;13.266;2023-08-06T08:49:35;16.67;;;5.40;;
4424;SDS011;2225;53.568;13.266;2023-08-06T08:52:03;13.27;;;6.30;;
4424;SDS011;2225;53.568;13.266;2023-08-06T08:54:39;12.60;;;6.00;;
4424;SDS011;2225;53.568;13.266;2023-08-06T08:57:07;19.47;;;9.47;;
4424;SDS011;2225;53.568;13.266;2023-08-06T08:59:33;14.20;;;7.33;;
4424;SDS011;2225;53.568;13.266;2023-08-06T09:02:01;13.70;;;5.07;;
4424;SDS011;2225;53.568;13.266;2023-08-06T09:04:29;13.87;;;7.30;;
4424;SDS011;2225;53.568;13.266;2023-08-06T09:07:01;11.80;;;5.77;;
4424;SDS011;2225;53.568;13.266;2023-08-06T09:09:30;17.07;;;5.53;;
4424;SDS011;2225;53.568;13.266;2023-08-06T09:12:00;16.90;;;5.57;;
4424;SDS011;2225;53.568;13.266;2023-08-06T09:14:28;15.83;;;5.20;;
4424;SDS011;2225;53.568;13.266;2023-08-06T09:16:56;12.50;;;5.30;;
4424;SDS011;2225;53.568;13.266;2023-08-06T09:19:24;12.97;;;4.27;;
4424;SDS011;2225;53.568;13.266;2023-08-06T09:21:51;16.30;;;5.73;;
4424;SDS011;2225;53.568;13.266;2023-08-06T09:24:20;12.10;;;4.40;;
4424;SDS011;2225;53.568;13.266;2023-08-06T09:26:46;10.90;;;4.73;;
4424;SDS011;2225;53.568;13.266;2023-08-06T09:29:13;10.37;;;4.50;;
4424;SDS011;2225;53.568;13.266;2023-08-06T09:31:44;12.00;;;4.30;;
4424;SDS011;2225;53.568;13.266;2023-08-06T09:34:20;12.60;;;5.30;;
4424;SDS011;2225;53.568;13.266;2023-08-06T09:36:49;15.00;;;6.43;;
4424;SDS011;2225;53.568;13.266;2023-08-06T09:39:21;15.33;;;6.13;;
4424;SDS011;2225;53.568;13.266;2023-08-06T09:42:00;11.27;;;4.83;;
4424;SDS011;2225;53.568;13.266;2023-08-06T09:44:32;14.60;;;5.03;;
4424;SDS011;2225;53.568;13.266;2023-08-06T09:47:01;10.70;;;5.10;;
4424;SDS011;2225;53.568;13.266;2023-08-06T09:52:00;13.20;;;4.80;;
4424;SDS011;2225;53.568;13.266;2023-08-06T09:54:27;10.80;;;4.30;;
4424;SDS011;2225;53.568;13.266;2023-08-06T09:56:56;8.70;;;3.70;;
4424;SDS011;2225;53.568;13.266;2023-08-06T09:59:23;10.23;;;4.00;;
4424;SDS011;2225;53.568;13.266;2023-08-06T10:01:51;12.23;;;4.27;;
4424;SDS011;2225;53.568;13.266;2023-08-06T10:04:20;10.63;;;3.97;;
4424;SDS011;2225;53.568;13.266;2023-08-06T10:06:52;11.93;;;4.23;;
4424;SDS011;2225;53.568;13.266;2023-08-06T10:09:20;10.90;;;4.10;;
4424;SDS011;2225;53.568;13.266;2023-08-06T10:11:49;9.40;;;3.60;;
4424;SDS011;2225;53.568;13.266;2023-08-06T10:14:28;11.47;;;3.40;;
4424;SDS011;2225;53.568;13.266;2023-08-06T10:16:59;10.73;;;4.37;;
4424;SDS011;2225;53.568;13.266;2023-08-06T10:19:26;8.27;;;3.50;;
4424;SDS011;2225;53.568;13.266;2023-08-06T10:24:52;10.13;;;3.90;;
4424;SDS011;2225;53.568;13.266;2023-08-06T10:27:21;8.40;;;3.80;;
4424;SDS011;2225;53.568;13.266;2023-08-06T10:29:54;11.37;;;4.30;;
4424;SDS011;2225;53.568;13.266;2023-08-06T10:32:44;9.97;;;3.20;;
4424;SDS011;2225;53.568;13.266;2023-08-06T10:35:58;11.70;;;5.33;;
4424;SDS011;2225;53.568;13.266;2023-08-06T10:38:17;9.70;;;4.00;;
4424;SDS011;2225;53.568;13.266;2023-08-06T10:40:49;9.40;;;4.10;;
4424;SDS011;2225;53.568;13.266;2023-08-06T10:43:41;8.67;;;4.00;;
4424;SDS011;2225;53.568;13.266;2023-08-06T10:46:10;11.27;;;4.23;;
4424;SDS011;2225;53.568;13.266;2023-08-06T10:48:50;13.73;;;4.50;;
4424;SDS011;2225;53.568;13.266;2023-08-06T10:51:17;8.30;;;3.50;;
4424;SDS011;2225;53.568;13.266;2023-08-06T10:53:45;10.27;;;3.67;;
4424;SDS011;2225;53.568;13.266;2023-08-06T10:56:16;8.50;;;3.90;;
4424;SDS011;2225;53.568;13.266;2023-08-06T10:58:45;8.73;;;3.60;;
4424;SDS011;2225;53.568;13.266;2023-08-06T11:01:13;13.57;;;4.23;;
4424;SDS011;2225;53.568;13.266;2023-08-06T11:03:41;10.37;;;3.70;;
4424;SDS011;2225;53.568;13.266;2023-08-06T11:06:10;11.50;;;5.10;;
4424;SDS011;2225;53.568;13.266;2023-08-06T11:08:38;13.10;;;5.53;;
4424;SDS011;2225;53.568;13.266;2023-08-06T11:11:14;9.50;;;3.90;;
4424;SDS011;2225;53.568;13.266;2023-08-06T11:13:46;9.73;;;3.83;;
4424;SDS011;2225;53.568;13.266;2023-08-06T11:16:21;16.60;;;4.23;;
4424;SDS011;2225;53.568;13.266;2023-08-06T11:18:53;10.27;;;4.07;;
4424;SDS011;2225;53.568;13.266;2023-08-06T11:21:21;10.10;;;3.63;;
4424;SDS011;2225;53.568;13.266;2023-08-06T11:23:48;9.07;;;4.10;;
4424;SDS011;2225;53.568;13.266;2023-08-06T11:26:19;9.30;;;3.73;;
4424;SDS011;2225;53.568;13.266;2023-08-06T11:28:47;9.60;;;3.93;;
4424;SDS011;2225;53.568;13.266;2023-08-06T11:31:20;13.60;;;3.47;;
4424;SDS011;2225;53.568;13.266;2023-08-06T11:33:52;11.10;;;3.90;;
4424;SDS011;2225;53.568;13.266;2023-08-06T11:36:32;11.40;;;3.53;;
4424;SDS011;2225;53.568;13.266;2023-08-06T11:39:01;9.10;;;3.30;;
4424;SDS011;2225;53.568;13.266;2023-08-06T11:41:30;10.47;;;3.80;;
4424;SDS011;2225;53.568;13.266;2023-08-06T11:43:59;11.07;;;4.00;;
4424;SDS011;2225;53.568;13.266;2023-08-06T11:46:26;11.27;;;4.80;;
4424;SDS011;2225;53.568;13.266;2023-08-06T11:48:56;11.67;;;3.90;;
4424;SDS011;2225;53.568;13.266;2023-08-06T11:51:24;16.00;;;3.87;;
4424;SDS011;2225;53.568;13.266;2023-08-06T11:53:55;10.37;;;3.73;;
4424;SDS011;2225;53.568;13.266;2023-08-06T11:56:25;10.73;;;4.37;;
4424;SDS011;2225;53.568;13.266;2023-08-06T11:58:54;12.40;;;4.80;;
4424;SDS011;2225;53.568;13.266;2023-08-06T12:01:21;8.80;;;3.63;;
4424;SDS011;2225;53.568;13.266;2023-08-06T12:03:48;9.77;;;4.10;;
4424;SDS011;2225;53.568;13.266;2023-08-06T12:06:15;11.77;;;3.53;;
4424;SDS011;2225;53.568;13.266;2023-08-06T12:08:42;12.70;;;4.00;;
4424;SDS011;2225;53.568;13.266;2023-08-06T12:11:10;11.67;;;4.27;;
4424;SDS011;2225;53.568;13.266;2023-08-06T12:13:38;10.27;;;4.27;;
4424;SDS011;2225;53.568;13.266;2023-08-06T12:16:05;11.70;;;4.00;;
4424;SDS011;2225;53.568;13.266;2023-08-06T12:18:32;12.03;;;3.93;;
4424;SDS011;2225;53.568;13.266;2023-08-06T12:20:59;9.57;;;2.80;;
4424;SDS011;2225;53.568;13.266;2023-08-06T12:23:26;10.53;;;3.43;;
4424;SDS011;2225;53.568;13.266;2023-08-06T12:25:53;9.10;;;3.03;;
4424;SDS011;2225;53.568;13.266;2023-08-06T12:28:20;10.50;;;3.10;;
4424;SDS011;2225;53.568;13.266;2023-08-06T12:30:49;9.03;;;3.33;;
4424;SDS011;2225;53.568;13.266;2023-08-06T12:33:17;8.60;;;3.23;;
4424;SDS011;2225;53.568;13.266;2023-08-06T12:35:44;9.80;;;3.33;;
4424;SDS011;2225;53.568;13.266;2023-08-06T12:38:11;9.37;;;3.10;;
4424;SDS011;2225;53.568;13.266;2023-08-06T12:40:39;7.53;;;3.20;;
4424;SDS011;2225;53.568;13.266;2023-08-06T12:43:09;9.40;;;3.00;;
4424;SDS011;2225;53.568;13.266;2023-08-06T12:45:36;9.63;;;3.00;;
4424;SDS011;2225;53.568;13.266;2023-08-06T12:48:03;9.10;;;3.47;;
4424;SDS011;2225;53.568;13.266;2023-08-06T12:50:30;10.30;;;3.70;;
4424;SDS011;2225;53.568;13.266;2023-08-06T12:52:59;10.40;;;3.33;;
4424;SDS011;2225;53.568;13.266;2023-08-06T12:55:26;11.90;;;3.60;;
4424;SDS011;2225;53.568;13.266;2023-08-06T12:57:57;8.40;;;2.80;;
4424;SDS011;2225;53.568;13.266;2023-08-06T13:00:25;11.00;;;3.10;;
4424;SDS011;2225;53.568;13.266;2023-08-06T13:02:53;9.13;;;3.00;;
4424;SDS011;2225;53.568;13.266;2023-08-06T13:05:20;8.40;;;3.17;;
4424;SDS011;2225;53.568;13.266;2023-08-06T13:07:47;10.13;;;3.10;;
4424;SDS011;2225;53.568;13.266;2023-08-06T13:10:14;8.80;;;3.13;;
4424;SDS011;2225;53.568;13.266;2023-08-06T13:12:41;7.70;;;2.90;;
4424;SDS011;2225;53.568;13.266;2023-08-06T13:15:09;8.47;;;3.33;;
4424;SDS011;2225;53.568;13.266;2023-08-06T13:17:36;7.77;;;3.40;;
4424;SDS011;2225;53.568;13.266;2023-08-06T13:20:03;8.93;;;3.60;;
4424;SDS011;2225;53.568;13.266;2023-08-06T13:22:31;7.13;;;2.83;;
4424;SDS011;2225;53.568;13.266;2023-08-06T13:24:58;8.80;;;2.80;;
4424;SDS011;2225;53.568;13.266;2023-08-06T13:27:25;9.60;;;3.67;;
4424;SDS011;2225;53.568;13.266;2023-08-06T13:29:52;10.10;;;3.40;;
4424;SDS011;2225;53.568;13.266;2023-08-06T13:32:19;8.90;;;3.03;;
4424;SDS011;2225;53.568;13.266;2023-08-06T13:34:46;8.17;;;3.17;;
4424;SDS011;2225;53.568;13.266;2023-08-06T13:37:13;11.33;;;3.07;;
4424;SDS011;2225;53.568;13.266;2023-08-06T13:39:40;9.33;;;3.13;;
4424;SDS011;2225;53.568;13.266;2023-08-06T13:42:06;9.10;;;3.53;;
4424;SDS011;2225;53.568;13.266;2023-08-06T13:44:33;11.00;;;3.30;;
4424;SDS011;2225;53.568;13.266;2023-08-06T13:47:02;11.47;;;3.50;;
4424;SDS011;2225;53.568;13.266;2023-08-06T13:49:29;8.40;;;3.63;;
4424;SDS011;2225;53.568;13.266;2023-08-06T13:51:56;17.97;;;4.20;;
4424;SDS011;2225;53.568;13.266;2023-08-06T13:54:41;13.23;;;3.70;;
4424;SDS011;2225;53.568;13.266;2023-08-06T13:57:08;10.50;;;3.40;;
4424;SDS011;2225;53.568;13.266;2023-08-06T13:59:35;9.57;;;2.90;;
4424;SDS011;2225;53.568;13.266;2023-08-06T14:02:02;7.87;;;2.87;;
4424;SDS011;2225;53.568;13.266;2023-08-06T14:04:29;8.30;;;2.60;;
4424;SDS011;2225;53.568;13.266;2023-08-06T14:06:56;9.07;;;3.00;;
4424;SDS011;2225;53.568;13.266;2023-08-06T14:09:23;9.83;;;3.23;;
4424;SDS011;2225;53.568;13.266;2023-08-06T14:11:50;8.23;;;3.40;;
4424;SDS011;2225;53.568;13.266;2023-08-06T14:14:17;9.90;;;3.80;;
4424;SDS011;2225;53.568;13.266;2023-08-06T14:16:44;12.03;;;3.50;;
4424;SDS011;2225;53.568;13.266;2023-08-06T14:19:11;11.03;;;3.40;;
4424;SDS011;2225;53.568;13.266;2023-08-06T14:21:38;11.63;;;3.10;;
4424;SDS011;2225;53.568;13.266;2023-08-06T14:24:06;10.40;;;3.40;;
4424;SDS011;2225;53.568;13.266;2023-08-06T14:26:33;12.47;;;4.13;;
4424;SDS011;2225;53.568;13.266;2023-08-06T14:29:00;10.17;;;3.87;;
4424;SDS011;2225;53.568;13.266;2023-08-06T14:31:27;8.93;;;3.63;;
4424;SDS011;2225;53.568;13.266;2023-08-06T14:33:54;15.37;;;3.43;;
4424;SDS011;2225;53.568;13.266;2023-08-06T14:36:21;12.13;;;3.30;;
4424;SDS011;2225;53.568;13.266;2023-08-06T14:38:48;8.80;;;3.30;;
4424;SDS011;2225;53.568;13.266;2023-08-06T14:41:25;8.33;;;3.00;;
4424;SDS011;2225;53.568;13.266;2023-08-06T14:43:52;12.50;;;4.90;;
4424;SDS011;2225;53.568;13.266;2023-08-06T14:46:20;18.30;;;7.63;;
4424;SDS011;2225;53.568;13.266;2023-08-06T14:48:47;25.33;;;13.30;;
4424;SDS011;2225;53.568;13.266;2023-08-06T14:51:14;16.63;;;6.30;;
4424;SDS011;2225;53.568;13.266;2023-08-06T14:53:41;9.57;;;4.33;;
4424;SDS011;2225;53.568;13.266;2023-08-06T14:56:08;11.63;;;3.93;;
4424;SDS011;2225;53.568;13.266;2023-08-06T14:58:35;12.43;;;4.33;;
4424;SDS011;2225;53.568;13.266;2023-08-06T15:01:02;11.30;;;3.90;;
4424;SDS011;2225;53.568;13.266;2023-08-06T15:03:29;11.80;;;3.37;;
4424;SDS011;2225;53.568;13.266;2023-08-06T15:05:57;10.00;;;3.70;;
4424;SDS011;2225;53.568;13.266;2023-08-06T15:08:24;9.00;;;3.37;;
4424;SDS011;2225;53.568;13.266;2023-08-06T15:10:51;9.07;;;3.50;;
4424;SDS011;2225;53.568;13.266;2023-08-06T15:13:20;8.87;;;3.03;;